Marion County Rgnl Information

FAA: FLP - ICAO: KFLP

Marion County Rgnl (Airport) Location

State Arkansas
County Marion
City Flippin
Marion County Rgnl (Airport) is 1 mile north of Flippin, AR.
Latitude 36-17-27.2000N
Longitude 092-35-24.9000W
Elevation 719ft

Marion County Rgnl METARs

METAR KFLP 301856Z AUTO 00000KT 10SM CLR 19/06 A3011 RMK AO2 SLP194 T01940061
Altimeter 30.11"
Temperature 19.4°C (66.9°F)
Wind 0° at 0KT
Clouds Skies are clear.
Visibility 10.0mi
Time observed: 2021-11-30T18:56:00Z

Marion County Rgnl (Airport) Details

Status Operational
Activation October 1948
Ownership Public
Usage Public
Chart KANSAS CITY
ATC on-site No
Beacon schedule sunset-sunrise
Beacon color clear green

Marion County Rgnl (Airport) Contacts

Owner MARION COUNTY
Owner address BOX 545, YELLVILLE, AR 72687
Owner phone 870-449-6231
Manager JEFF D. BARKER
Manager address 3215 N NORTH HILLS BLVD, FAYETTEVILLE, AR 72703
Manager phone 479-463-7916

Marion County Rgnl Radio Frequencies

Marion County Rgnl (Airport) Radio Frequencies

UNICOM 123
Common traffic advisory frequency (CTAF) 123